AirNav   Everest Fuels
 
 432 users online  

W33 Friday Harbor Seaplane Base
Friday Harbor, Washington, USA

GOING TO FRIDAY HARBOR?


FAA INFORMATION EFFECTIVE 22 APRIL 2021

Location

FAA Identifier: W33
Lat/Long: 48-32-14.3590N 123-00-34.6450W
48-32.239317N 123-00.577417W
48.5373219,-123.0096236
(estimated)
Elevation: 0 ft. / 0 m (estimated)
Variation: 21E (1985)
Time zone: UTC -7 (UTC -8 during Standard Time)
Zip code: 98250

Seaplane Base Operations

Seaplane Base use: Open to the public
Activation date: 10/1947
Control tower: no
ARTCC: SEATTLE CENTER
FSS: SEATTLE FLIGHT SERVICE STATION
NOTAMs facility: SEA (NOTAM-D service available)
Attendance: UNATNDD
Wind indicator: yes
Segmented circle: no
Landing fee: no, GA OVERNIGHT FEE
International operations: international airport of entry
US CUSTOMS USER FEE AIRPORT.

Seaplane Base Communications

CTAF: 128.25
WX ASOS at FHR (1.1 nm SW): 135.675 (360-378-8491)
WX AWOS-3 at ORS (11 nm N): 135.425 (360-376-6045)
WX ASOS at NUW (18 nm SE): PHONE 360-257-8813

Nearby radio navigation aids

VOR radial/distance  VOR name  Freq  Var
CVVr308/20.9PENN COVE VOR/DME117.2019E
YYJr104/22.0VICTORIA VOR/DME113.7017E
HUHr195/29.8WHATCOM VORTAC113.0020E
YVRr153/32.9VANCOUVER VOR/DME115.9017E

 
NDB name  Hdg/Dist  Freq  Var  ID
FRIDAY HARBOR004/1.628417EFHR ..-. .... .-.
SKAGIT/BAY VIEW264/23.924016EBVS -... ...- ...
EDIZ HOOK016/28.633817ENOW -. --- .--

Seaplane Base Services

Airframe service: NONE
Powerplant service: NONE
Bottled oxygen: NONE
Bulk oxygen: NONE

Runway Information

Runway 3W/21W

Dimensions: 10000 x 2000 ft. / 3048 x 610 m
Surface: water
RUNWAY 3W  RUNWAY 21W
Elevation: 0.0 ft.0.0 ft.
Traffic pattern: leftleft
Obstructions: 250 ft. hill, 5000 ft. from runway, 20:1 slope to clear
INCLINOMETER CHECK NOT PERFORMED ALL RWYS.
none

Runway 12W/30W

Dimensions: 6000 x 1000 ft. / 1829 x 305 m
Surface: water
RUNWAY 12W  RUNWAY 30W
Elevation: 0.0 ft.0.0 ft.
Traffic pattern: leftleft
Obstructions: 450 ft. hill, 5000 ft. from runway, 12:1 slope to clear150 ft. hill, 2000 ft. from runway, 14:1 slope to clear

Seaplane Base Ownership and Management from official FAA records

Ownership: Publicly-owned
Owner: PORT OF FRIDAY HARBOR
PO BOX 889
FRIDAY HARBOR, WA 98250
Phone 360-378-2688
Manager: MIKE OTIS
PO BOX 889
FRIDAY HARBOR, WA 98250
Phone (360) 378-4724

Seaplane Base Operational Statistics

Aircraft operations: avg 24/day *
54% air taxi
46% transient general aviation
* for 12-month period ending 31 December 2017

Additional Remarks

FLIGHT NOTIFICATION SERVICE (ADCUS) AVBL.
ALL TKOFS SHOULD BE PERFORMED N OF BROWNS ISLAND.
FOR CD CTC WHIDBEY APCH AT 360-257-3310.

Instrument Procedures

There are no published instrument procedures at W33.

Some nearby airports with instrument procedures:

KFHR - Friday Harbor Airport (1 nm SW)
KORS - Orcas Island Airport (11 nm N)
KNUW - Whidbey Island Naval Air Station (Ault Field) (18 nm SE)
KOKH - AJ Eisenberg Airport (22 nm SE)
KBVS - Skagit Regional Airport (24 nm E)
 
Loc | Ops | Rwys | IFR | FBO | Links
Com | Nav | Svcs | Stats | Notes
Area around W33 (Friday Harbor Seaplane Base)
 
Road maps at: MapQuest Bing Google
 
Aerial photo
WARNING: Photo may not be current or correct
Aerial photo of W33 (Friday Harbor Seaplane Base)
Do you have a better or more recent aerial photo of Friday Harbor Seaplane Base that you would like to share? If so, please send us your photo.

 
Sectional chart

 
Airport distance calculator
Flying to Friday Harbor Seaplane Base? Find the distance to fly.

From to W33

Sunrise and sunset
Times for 15-May-2021
 Local
(UTC-7)
 Zulu
(UTC)
Morning civil twilight04:5411:54
Sunrise05:3212:32
Sunset20:4503:45
Evening civil twilight21:2204:22

Current date and time
Zulu (UTC)  15-May-2021 07:16:51
Local (UTC-7)  15-May-2021 00:16:51
 
METAR
KFHR 
2nm SW 
150653Z AUTO 36003KT 10SM CLR 08/07 A3010 RMK AO2 SLP191 T00780072 TSNO
CWZO 
9nm W 
150600Z AUTO 16009KT RMK AO1
KORS 
11nm NE 
150655Z AUTO 16007KT 10SM CLR 12/10 A3008 RMK AO2
CWYJ 
12nm SW 
150600Z AUTO 26002KT 11/08 RMK AO1 SLP185 T01130080 53004
CWEZ 
14nm N 
150600Z AUTO 21006KT 14/10 RMK AO1 SLP181 T01390095 51006
CWLM 
14nm SW 
150600Z AUTO 24008KT 11/08 RMK AO1 SLP185 T01090077 52004
CYWH 
14nm SW 
150400Z 25005KT 15SM SKC 14/09 A3006 RMK /LAST STFD OBS/NEXT 151300UTC SLP182
CWPF 
18nm SW 
150645Z AUTO 00000KT 13/08 RMK AO1 SLP184 T01320082 52006
CYYJ 
18nm W 
150600Z 05003KT 050V170 20SM SKC 11/10 A3007 RMK SLP185
KNUW 
18nm SE 
150656Z 21005KT 9SM FEW030 FEW250 10/07 A3014 RMK AO2 SLP206 T01000072
TAF
CYWH 
14nm SW 
142038Z 1421/1504 21007KT P6SM SKC RMK NXT FCST WILL BE ISSUED AT 151415Z
CYYJ 
18nm W 
150538Z 1506/1606 VRB03KT P6SM SCT250 PROB30 1508/1512 3SM BR FM151500 30005KT P6SM SKC BECMG 1517/1519 10007KT BECMG 1603/1605 VRB03KT RMK NXT FCST BY 151200Z
KNUW 
18nm SE 
1418/1515 27006KT 1200 BR BKN005 BKN035 QNH3016INS TEMPO 1418/1420 VRB06KT 4800 BR SCT005 BKN035 BECMG 1420/1423 28009KT 9999 VCFG FEW005 SCT045 SCT250 QNH3013INS FM150300 VRB06KT 9999 FEW035 QNH3010INS TEMPO 1511/1515 1600 BR BKN004 T16/1423Z T06/1512Z COR AMD 1840 FS30004
NOTAMs
Click for the latest NOTAMs
NOTAMs are issued by the DoD/FAA and will open in a separate window not controlled by AirNav.

 

 
 

Getting Around: Taxi, Limo, Rental Cars, Mass Transit

  
 Business Name 
 
 Contact 
 
Services / Description
 
Comments
  
 Susie's Moped & Auto Rentals
360-378-5244
[web site]
[email]

Like us on facebook Follow us on twitter
Rental cars, Ground transportation, Other business

More info about Susie's Moped & Auto Rentals
 
   write
 

Would you like to see your business listed on this page?

 If your business provides an interesting product or service to pilots, flight crews, aircraft, or users of the Friday Harbor Seaplane Base, you should consider listing it here.  To start the listing process, click on the button below
 
Add a business
 

Other Pages about Friday Harbor Seaplane Base

Update a link
 
Copyright © AirNav, LLC. All rights reserved. Privacy Policy  Contact